sensor_id;sensor_type;location;lat;lon;timestamp;P1;durP1;ratioP1;P2;durP2;ratioP2
2053;SDS011;1032;52.542;13.440;2022-10-31T00:00:52;41.47;;;30.80;;
2053;SDS011;1032;52.542;13.440;2022-10-31T00:03:19;40.60;;;30.07;;
2053;SDS011;1032;52.542;13.440;2022-10-31T00:05:46;40.17;;;32.90;;
2053;SDS011;1032;52.542;13.440;2022-10-31T00:08:13;36.90;;;29.63;;
2053;SDS011;1032;52.542;13.440;2022-10-31T00:10:40;39.90;;;30.00;;
2053;SDS011;1032;52.542;13.440;2022-10-31T00:13:09;35.00;;;30.57;;
2053;SDS011;1032;52.542;13.440;2022-10-31T00:15:36;41.33;;;30.67;;
2053;SDS011;1032;52.542;13.440;2022-10-31T00:18:04;34.97;;;28.90;;
2053;SDS011;1032;52.542;13.440;2022-10-31T00:27:27;43.13;;;32.10;;
2053;SDS011;1032;52.542;13.440;2022-10-31T00:29:55;38.77;;;32.10;;
2053;SDS011;1032;52.542;13.440;2022-10-31T00:32:21;40.40;;;32.70;;
2053;SDS011;1032;52.542;13.440;2022-10-31T00:34:48;39.93;;;32.50;;
2053;SDS011;1032;52.542;13.440;2022-10-31T00:37:14;36.53;;;31.23;;
2053;SDS011;1032;52.542;13.440;2022-10-31T00:39:43;35.63;;;31.20;;
2053;SDS011;1032;52.542;13.440;2022-10-31T00:42:10;35.13;;;29.40;;
2053;SDS011;1032;52.542;13.440;2022-10-31T00:44:37;36.20;;;30.03;;
2053;SDS011;1032;52.542;13.440;2022-10-31T00:47:04;36.63;;;30.40;;
2053;SDS011;1032;52.542;13.440;2022-10-31T00:49:31;39.30;;;32.43;;
2053;SDS011;1032;52.542;13.440;2022-10-31T00:51:58;41.13;;;31.37;;
2053;SDS011;1032;52.542;13.440;2022-10-31T00:54:24;35.57;;;31.70;;
2053;SDS011;1032;52.542;13.440;2022-10-31T00:56:51;36.43;;;30.70;;
2053;SDS011;1032;52.542;13.440;2022-10-31T00:59:17;39.73;;;31.57;;
2053;SDS011;1032;52.542;13.440;2022-10-31T01:01:44;35.43;;;30.43;;
2053;SDS011;1032;52.542;13.440;2022-10-31T01:04:12;42.60;;;33.00;;
2053;SDS011;1032;52.542;13.440;2022-10-31T01:06:39;40.00;;;32.93;;
2053;SDS011;1032;52.542;13.440;2022-10-31T01:09:05;39.20;;;31.13;;
2053;SDS011;1032;52.542;13.440;2022-10-31T01:11:32;48.27;;;32.80;;
2053;SDS011;1032;52.542;13.440;2022-10-31T01:13:58;38.67;;;31.50;;
2053;SDS011;1032;52.542;13.440;2022-10-31T01:16:25;51.00;;;33.50;;
2053;SDS011;1032;52.542;13.440;2022-10-31T01:18:54;35.73;;;31.53;;
2053;SDS011;1032;52.542;13.440;2022-10-31T01:21:23;45.07;;;32.77;;
2053;SDS011;1032;52.542;13.440;2022-10-31T01:23:52;44.13;;;31.60;;
2053;SDS011;1032;52.542;13.440;2022-10-31T01:26:21;38.50;;;32.47;;
2053;SDS011;1032;52.542;13.440;2022-10-31T01:28:49;39.50;;;33.77;;
2053;SDS011;1032;52.542;13.440;2022-10-31T01:31:17;42.50;;;33.20;;
2053;SDS011;1032;52.542;13.440;2022-10-31T01:33:44;35.13;;;31.30;;
2053;SDS011;1032;52.542;13.440;2022-10-31T01:36:12;34.60;;;28.93;;
2053;SDS011;1032;52.542;13.440;2022-10-31T01:38:42;36.00;;;30.80;;
2053;SDS011;1032;52.542;13.440;2022-10-31T01:41:10;37.50;;;28.70;;
2053;SDS011;1032;52.542;13.440;2022-10-31T01:43:42;39.30;;;30.90;;
2053;SDS011;1032;52.542;13.440;2022-10-31T01:46:10;31.73;;;27.50;;
2053;SDS011;1032;52.542;13.440;2022-10-31T01:48:37;36.73;;;31.23;;
2053;SDS011;1032;52.542;13.440;2022-10-31T01:51:05;40.50;;;29.10;;
2053;SDS011;1032;52.542;13.440;2022-10-31T01:53:33;33.90;;;28.87;;
2053;SDS011;1032;52.542;13.440;2022-10-31T01:56:03;35.67;;;30.30;;
2053;SDS011;1032;52.542;13.440;2022-10-31T01:58:30;31.13;;;24.70;;
2053;SDS011;1032;52.542;13.440;2022-10-31T02:00:58;36.77;;;27.40;;
2053;SDS011;1032;52.542;13.440;2022-10-31T02:03:26;31.70;;;28.27;;
2053;SDS011;1032;52.542;13.440;2022-10-31T02:05:55;32.20;;;28.70;;
2053;SDS011;1032;52.542;13.440;2022-10-31T02:08:25;33.87;;;30.30;;
2053;SDS011;1032;52.542;13.440;2022-10-31T02:10:54;33.60;;;28.37;;
2053;SDS011;1032;52.542;13.440;2022-10-31T02:13:24;45.93;;;30.17;;
2053;SDS011;1032;52.542;13.440;2022-10-31T02:15:52;31.20;;;27.17;;
2053;SDS011;1032;52.542;13.440;2022-10-31T02:18:20;36.90;;;28.73;;
2053;SDS011;1032;52.542;13.440;2022-10-31T02:20:56;31.37;;;27.13;;
2053;SDS011;1032;52.542;13.440;2022-10-31T02:23:45;36.50;;;29.90;;
2053;SDS011;1032;52.542;13.440;2022-10-31T02:26:45;32.40;;;27.83;;
2053;SDS011;1032;52.542;13.440;2022-10-31T02:29:35;33.33;;;26.83;;
2053;SDS011;1032;52.542;13.440;2022-10-31T02:32:27;35.00;;;26.13;;
2053;SDS011;1032;52.542;13.440;2022-10-31T02:35:01;36.63;;;28.37;;
2053;SDS011;1032;52.542;13.440;2022-10-31T02:37:37;37.63;;;27.60;;
2053;SDS011;1032;52.542;13.440;2022-10-31T02:40:10;34.90;;;28.43;;
2053;SDS011;1032;52.542;13.440;2022-10-31T02:43:05;34.47;;;26.80;;
2053;SDS011;1032;52.542;13.440;2022-10-31T02:45:39;36.33;;;25.77;;
2053;SDS011;1032;52.542;13.440;2022-10-31T02:48:14;36.03;;;25.90;;
2053;SDS011;1032;52.542;13.440;2022-10-31T02:50:47;35.67;;;27.03;;
2053;SDS011;1032;52.542;13.440;2022-10-31T02:53:18;35.03;;;26.93;;
2053;SDS011;1032;52.542;13.440;2022-10-31T02:55:56;32.57;;;27.80;;
2053;SDS011;1032;52.542;13.440;2022-10-31T02:58:26;31.30;;;26.80;;
2053;SDS011;1032;52.542;13.440;2022-10-31T03:01:03;39.13;;;28.13;;
2053;SDS011;1032;52.542;13.440;2022-10-31T03:03:50;31.97;;;27.13;;
2053;SDS011;1032;52.542;13.440;2022-10-31T03:06:27;28.63;;;24.90;;
2053;SDS011;1032;52.542;13.440;2022-10-31T03:09:00;33.50;;;27.03;;
2053;SDS011;1032;52.542;13.440;2022-10-31T03:11:37;30.63;;;25.17;;
2053;SDS011;1032;52.542;13.440;2022-10-31T03:14:15;31.90;;;28.20;;
2053;SDS011;1032;52.542;13.440;2022-10-31T03:16:52;33.83;;;27.50;;
2053;SDS011;1032;52.542;13.440;2022-10-31T03:19:25;32.93;;;25.07;;
2053;SDS011;1032;52.542;13.440;2022-10-31T03:21:55;31.00;;;26.07;;
2053;SDS011;1032;52.542;13.440;2022-10-31T03:24:27;30.83;;;24.50;;
2053;SDS011;1032;52.542;13.440;2022-10-31T03:26:57;28.03;;;23.97;;
2053;SDS011;1032;52.542;13.440;2022-10-31T03:29:29;28.37;;;23.20;;
2053;SDS011;1032;52.542;13.440;2022-10-31T03:32:00;31.60;;;21.97;;
2053;SDS011;1032;52.542;13.440;2022-10-31T03:34:34;25.73;;;22.60;;
2053;SDS011;1032;52.542;13.440;2022-10-31T03:37:03;26.23;;;22.50;;
2053;SDS011;1032;52.542;13.440;2022-10-31T03:39:32;24.10;;;19.07;;
2053;SDS011;1032;52.542;13.440;2022-10-31T03:42:02;21.90;;;17.57;;
2053;SDS011;1032;52.542;13.440;2022-10-31T03:44:32;22.20;;;18.30;;
2053;SDS011;1032;52.542;13.440;2022-10-31T03:47:01;24.53;;;20.80;;
2053;SDS011;1032;52.542;13.440;2022-10-31T03:49:29;26.13;;;16.80;;
2053;SDS011;1032;52.542;13.440;2022-10-31T03:51:59;26.13;;;20.97;;
2053;SDS011;1032;52.542;13.440;2022-10-31T03:54:34;35.70;;;21.30;;
2053;SDS011;1032;52.542;13.440;2022-10-31T03:57:05;23.53;;;20.13;;
2053;SDS011;1032;52.542;13.440;2022-10-31T03:59:36;25.43;;;19.90;;
2053;SDS011;1032;52.542;13.440;2022-10-31T04:02:12;20.77;;;18.40;;
2053;SDS011;1032;52.542;13.440;2022-10-31T04:04:43;24.60;;;19.57;;
2053;SDS011;1032;52.542;13.440;2022-10-31T04:07:12;25.33;;;19.30;;
2053;SDS011;1032;52.542;13.440;2022-10-31T04:09:41;19.30;;;16.53;;
2053;SDS011;1032;52.542;13.440;2022-10-31T04:12:12;29.60;;;19.47;;
2053;SDS011;1032;52.542;13.440;2022-10-31T04:15:00;26.80;;;19.80;;
2053;SDS011;1032;52.542;13.440;2022-10-31T04:17:29;24.00;;;19.30;;
2053;SDS011;1032;52.542;13.440;2022-10-31T04:19:59;22.00;;;18.00;;
2053;SDS011;1032;52.542;13.440;2022-10-31T04:22:28;25.67;;;20.10;;
2053;SDS011;1032;52.542;13.440;2022-10-31T04:24:55;28.90;;;19.47;;
2053;SDS011;1032;52.542;13.440;2022-10-31T04:27:21;25.23;;;19.80;;
2053;SDS011;1032;52.542;13.440;2022-10-31T04:29:48;25.60;;;18.40;;
2053;SDS011;1032;52.542;13.440;2022-10-31T04:32:15;28.97;;;18.83;;
2053;SDS011;1032;52.542;13.440;2022-10-31T04:34:41;22.90;;;18.57;;
2053;SDS011;1032;52.542;13.440;2022-10-31T04:37:09;23.83;;;19.40;;
2053;SDS011;1032;52.542;13.440;2022-10-31T04:39:37;28.07;;;18.40;;
2053;SDS011;1032;52.542;13.440;2022-10-31T04:42:22;19.03;;;16.40;;
2053;SDS011;1032;52.542;13.440;2022-10-31T04:44:49;20.93;;;18.80;;
2053;SDS011;1032;52.542;13.440;2022-10-31T04:47:15;30.00;;;18.10;;
2053;SDS011;1032;52.542;13.440;2022-10-31T04:49:42;28.57;;;17.30;;
2053;SDS011;1032;52.542;13.440;2022-10-31T04:52:11;24.80;;;18.80;;
2053;SDS011;1032;52.542;13.440;2022-10-31T04:54:39;25.53;;;17.50;;
2053;SDS011;1032;52.542;13.440;2022-10-31T04:57:32;23.03;;;17.43;;
2053;SDS011;1032;52.542;13.440;2022-10-31T05:00:00;23.77;;;16.80;;
2053;SDS011;1032;52.542;13.440;2022-10-31T05:02:28;24.23;;;17.63;;
2053;SDS011;1032;52.542;13.440;2022-10-31T05:04:56;24.63;;;17.30;;
2053;SDS011;1032;52.542;13.440;2022-10-31T05:07:22;22.10;;;16.20;;
2053;SDS011;1032;52.542;13.440;2022-10-31T05:09:50;21.03;;;14.67;;
2053;SDS011;1032;52.542;13.440;2022-10-31T05:12:18;21.53;;;14.80;;
2053;SDS011;1032;52.542;13.440;2022-10-31T05:15:04;21.53;;;16.00;;
2053;SDS011;1032;52.542;13.440;2022-10-31T05:17:50;30.17;;;16.00;;
2053;SDS011;1032;52.542;13.440;2022-10-31T05:20:37;22.40;;;16.63;;
2053;SDS011;1032;52.542;13.440;2022-10-31T05:23:11;21.80;;;17.20;;
2053;SDS011;1032;52.542;13.440;2022-10-31T05:25:41;23.47;;;16.27;;
2053;SDS011;1032;52.542;13.440;2022-10-31T05:28:07;19.80;;;17.67;;
2053;SDS011;1032;52.542;13.440;2022-10-31T05:30:34;27.90;;;18.00;;
2053;SDS011;1032;52.542;13.440;2022-10-31T05:33:02;23.67;;;17.00;;
2053;SDS011;1032;52.542;13.440;2022-10-31T05:35:48;36.57;;;19.30;;
2053;SDS011;1032;52.542;13.440;2022-10-31T05:38:30;23.77;;;16.63;;
2053;SDS011;1032;52.542;13.440;2022-10-31T05:41:05;23.70;;;18.30;;
2053;SDS011;1032;52.542;13.440;2022-10-31T05:43:32;21.13;;;14.83;;
2053;SDS011;1032;52.542;13.440;2022-10-31T05:46:01;19.57;;;16.70;;
2053;SDS011;1032;52.542;13.440;2022-10-31T05:48:51;24.93;;;17.90;;
2053;SDS011;1032;52.542;13.440;2022-10-31T05:51:56;24.97;;;16.40;;
2053;SDS011;1032;52.542;13.440;2022-10-31T05:54:32;26.03;;;17.53;;
2053;SDS011;1032;52.542;13.440;2022-10-31T05:57:00;23.80;;;16.43;;
2053;SDS011;1032;52.542;13.440;2022-10-31T05:59:26;29.63;;;17.20;;
2053;SDS011;1032;52.542;13.440;2022-10-31T06:01:54;27.57;;;19.37;;
2053;SDS011;1032;52.542;13.440;2022-10-31T06:04:43;24.00;;;16.87;;
2053;SDS011;1032;52.542;13.440;2022-10-31T06:07:10;24.17;;;18.53;;
2053;SDS011;1032;52.542;13.440;2022-10-31T06:09:37;23.93;;;16.20;;
2053;SDS011;1032;52.542;13.440;2022-10-31T06:12:06;26.30;;;17.10;;
2053;SDS011;1032;52.542;13.440;2022-10-31T06:14:53;38.03;;;21.77;;
2053;SDS011;1032;52.542;13.440;2022-10-31T06:17:19;31.37;;;20.90;;
2053;SDS011;1032;52.542;13.440;2022-10-31T06:19:46;28.30;;;19.17;;
2053;SDS011;1032;52.542;13.440;2022-10-31T06:22:18;28.13;;;18.83;;
2053;SDS011;1032;52.542;13.440;2022-10-31T06:24:45;22.90;;;17.67;;
2053;SDS011;1032;52.542;13.440;2022-10-31T06:27:28;30.17;;;18.43;;
2053;SDS011;1032;52.542;13.440;2022-10-31T06:29:56;23.67;;;18.37;;
2053;SDS011;1032;52.542;13.440;2022-10-31T06:32:29;26.57;;;18.40;;
2053;SDS011;1032;52.542;13.440;2022-10-31T06:34:57;26.13;;;18.57;;
2053;SDS011;1032;52.542;13.440;2022-10-31T06:37:23;29.07;;;18.33;;
2053;SDS011;1032;52.542;13.440;2022-10-31T06:39:52;26.70;;;17.93;;
2053;SDS011;1032;52.542;13.440;2022-10-31T06:42:19;21.80;;;16.90;;
2053;SDS011;1032;52.542;13.440;2022-10-31T06:44:47;26.67;;;18.10;;
2053;SDS011;1032;52.542;13.440;2022-10-31T06:47:40;26.27;;;20.43;;
2053;SDS011;1032;52.542;13.440;2022-10-31T06:50:10;24.87;;;19.00;;
2053;SDS011;1032;52.542;13.440;2022-10-31T06:52:37;34.70;;;20.37;;
2053;SDS011;1032;52.542;13.440;2022-10-31T06:55:04;25.77;;;18.93;;
2053;SDS011;1032;52.542;13.440;2022-10-31T06:57:32;27.10;;;19.13;;
2053;SDS011;1032;52.542;13.440;2022-10-31T07:00:00;26.07;;;17.77;;
2053;SDS011;1032;52.542;13.440;2022-10-31T07:02:38;18.93;;;16.23;;
2053;SDS011;1032;52.542;13.440;2022-10-31T07:05:05;22.50;;;18.27;;
2053;SDS011;1032;52.542;13.440;2022-10-31T07:07:32;26.13;;;19.23;;
2053;SDS011;1032;52.542;13.440;2022-10-31T07:09:58;38.67;;;20.87;;
2053;SDS011;1032;52.542;13.440;2022-10-31T07:12:40;32.07;;;18.00;;
2053;SDS011;1032;52.542;13.440;2022-10-31T07:15:09;29.13;;;18.10;;
2053;SDS011;1032;52.542;13.440;2022-10-31T07:17:36;27.27;;;18.50;;
2053;SDS011;1032;52.542;13.440;2022-10-31T07:20:03;26.80;;;17.40;;
2053;SDS011;1032;52.542;13.440;2022-10-31T07:22:34;23.53;;;17.83;;
2053;SDS011;1032;52.542;13.440;2022-10-31T07:25:03;29.53;;;19.57;;
2053;SDS011;1032;52.542;13.440;2022-10-31T07:27:48;21.10;;;15.53;;
2053;SDS011;1032;52.542;13.440;2022-10-31T07:30:18;28.73;;;18.40;;
2053;SDS011;1032;52.542;13.440;2022-10-31T07:32:47;27.40;;;17.43;;
2053;SDS011;1032;52.542;13.440;2022-10-31T07:35:17;30.73;;;19.03;;
2053;SDS011;1032;52.542;13.440;2022-10-31T07:37:47;25.03;;;16.63;;
2053;SDS011;1032;52.542;13.440;2022-10-31T07:40:15;24.90;;;18.33;;
2053;SDS011;1032;52.542;13.440;2022-10-31T07:42:43;29.50;;;19.03;;
2053;SDS011;1032;52.542;13.440;2022-10-31T07:45:32;29.87;;;19.50;;
2053;SDS011;1032;52.542;13.440;2022-10-31T07:48:17;23.90;;;18.67;;
2053;SDS011;1032;52.542;13.440;2022-10-31T07:51:03;36.90;;;20.53;;
2053;SDS011;1032;52.542;13.440;2022-10-31T07:53:50;27.50;;;19.23;;
2053;SDS011;1032;52.542;13.440;2022-10-31T07:56:23;27.93;;;20.30;;
2053;SDS011;1032;52.542;13.440;2022-10-31T07:58:50;25.07;;;19.00;;
2053;SDS011;1032;52.542;13.440;2022-10-31T08:01:18;25.33;;;18.77;;
2053;SDS011;1032;52.542;13.440;2022-10-31T08:04:00;30.33;;;19.67;;
2053;SDS011;1032;52.542;13.440;2022-10-31T08:06:45;26.83;;;20.03;;
2053;SDS011;1032;52.542;13.440;2022-10-31T08:09:26;30.03;;;20.43;;
2053;SDS011;1032;52.542;13.440;2022-10-31T08:11:56;23.00;;;19.50;;
2053;SDS011;1032;52.542;13.440;2022-10-31T08:14:22;27.47;;;18.80;;
2053;SDS011;1032;52.542;13.440;2022-10-31T08:16:53;28.43;;;20.80;;
2053;SDS011;1032;52.542;13.440;2022-10-31T08:19:20;27.17;;;21.50;;
2053;SDS011;1032;52.542;13.440;2022-10-31T08:21:49;24.13;;;20.00;;
2053;SDS011;1032;52.542;13.440;2022-10-31T08:24:16;28.87;;;19.47;;
2053;SDS011;1032;52.542;13.440;2022-10-31T08:26:44;30.53;;;20.97;;
2053;SDS011;1032;52.542;13.440;2022-10-31T08:29:11;27.70;;;19.30;;
2053;SDS011;1032;52.542;13.440;2022-10-31T08:31:39;27.60;;;20.47;;
2053;SDS011;1032;52.542;13.440;2022-10-31T08:34:26;27.40;;;19.30;;
2053;SDS011;1032;52.542;13.440;2022-10-31T08:37:11;31.60;;;21.40;;
2053;SDS011;1032;52.542;13.440;2022-10-31T08:39:42;28.53;;;21.70;;
2053;SDS011;1032;52.542;13.440;2022-10-31T08:42:09;28.00;;;21.13;;
2053;SDS011;1032;52.542;13.440;2022-10-31T08:44:37;25.70;;;20.60;;
2053;SDS011;1032;52.542;13.440;2022-10-31T08:47:04;29.27;;;21.50;;
2053;SDS011;1032;52.542;13.440;2022-10-31T08:49:34;25.83;;;20.20;;
2053;SDS011;1032;52.542;13.440;2022-10-31T08:52:01;26.80;;;20.07;;
2053;SDS011;1032;52.542;13.440;2022-10-31T08:54:32;30.47;;;22.10;;
2053;SDS011;1032;52.542;13.440;2022-10-31T08:57:25;32.77;;;21.60;;
2053;SDS011;1032;52.542;13.440;2022-10-31T08:59:52;27.63;;;22.30;;
2053;SDS011;1032;52.542;13.440;2022-10-31T09:02:24;30.37;;;21.57;;
2053;SDS011;1032;52.542;13.440;2022-10-31T09:04:57;28.10;;;22.13;;
2053;SDS011;1032;52.542;13.440;2022-10-31T09:07:24;33.57;;;24.13;;
2053;SDS011;1032;52.542;13.440;2022-10-31T09:09:52;29.73;;;22.40;;
2053;SDS011;1032;52.542;13.440;2022-10-31T09:12:20;29.27;;;21.37;;
2053;SDS011;1032;52.542;13.440;2022-10-31T09:15:24;27.87;;;23.23;;
2053;SDS011;1032;52.542;13.440;2022-10-31T09:18:13;34.37;;;24.47;;
2053;SDS011;1032;52.542;13.440;2022-10-31T09:20:50;31.57;;;22.90;;
2053;SDS011;1032;52.542;13.440;2022-10-31T09:23:17;31.97;;;21.73;;
2053;SDS011;1032;52.542;13.440;2022-10-31T09:25:45;36.97;;;23.00;;
2053;SDS011;1032;52.542;13.440;2022-10-31T09:28:33;32.57;;;24.30;;
2053;SDS011;1032;52.542;13.440;2022-10-31T09:31:05;32.47;;;23.37;;
2053;SDS011;1032;52.542;13.440;2022-10-31T09:34:07;34.00;;;25.37;;
2053;SDS011;1032;52.542;13.440;2022-10-31T09:36:35;30.03;;;23.30;;
2053;SDS011;1032;52.542;13.440;2022-10-31T09:39:04;35.50;;;25.63;;
2053;SDS011;1032;52.542;13.440;2022-10-31T09:41:37;28.67;;;21.37;;
2053;SDS011;1032;52.542;13.440;2022-10-31T09:44:17;31.07;;;24.67;;
2053;SDS011;1032;52.542;13.440;2022-10-31T09:46:52;33.60;;;25.07;;
2053;SDS011;1032;52.542;13.440;2022-10-31T09:49:37;25.20;;;22.40;;
2053;SDS011;1032;52.542;13.440;2022-10-31T09:52:18;33.43;;;25.50;;
2053;SDS011;1032;52.542;13.440;2022-10-31T09:54:50;30.47;;;25.57;;
2053;SDS011;1032;52.542;13.440;2022-10-31T09:57:22;35.30;;;27.10;;
2053;SDS011;1032;52.542;13.440;2022-10-31T09:59:53;32.20;;;23.27;;
2053;SDS011;1032;52.542;13.440;2022-10-31T10:02:23;28.30;;;24.13;;
2053;SDS011;1032;52.542;13.440;2022-10-31T10:04:56;37.00;;;27.40;;
2053;SDS011;1032;52.542;13.440;2022-10-31T10:07:32;30.37;;;25.93;;
2053;SDS011;1032;52.542;13.440;2022-10-31T10:10:32;39.67;;;27.60;;
2053;SDS011;1032;52.542;13.440;2022-10-31T10:13:29;33.27;;;24.90;;
2053;SDS011;1032;52.542;13.440;2022-10-31T10:16:19;40.50;;;25.30;;
2053;SDS011;1032;52.542;13.440;2022-10-31T10:19:00;31.63;;;25.53;;
2053;SDS011;1032;52.542;13.440;2022-10-31T10:21:39;34.57;;;26.83;;
2053;SDS011;1032;52.542;13.440;2022-10-31T10:24:17;31.00;;;23.57;;
2053;SDS011;1032;52.542;13.440;2022-10-31T10:26:56;34.87;;;26.83;;
2053;SDS011;1032;52.542;13.440;2022-10-31T10:29:30;36.17;;;26.47;;
2053;SDS011;1032;52.542;13.440;2022-10-31T10:32:01;35.00;;;27.67;;
2053;SDS011;1032;52.542;13.440;2022-10-31T10:34:37;40.03;;;28.93;;
2053;SDS011;1032;52.542;13.440;2022-10-31T10:37:12;38.33;;;25.67;;
2053;SDS011;1032;52.542;13.440;2022-10-31T10:39:51;35.33;;;26.37;;
2053;SDS011;1032;52.542;13.440;2022-10-31T10:42:21;33.13;;;27.93;;
2053;SDS011;1032;52.542;13.440;2022-10-31T10:45:13;36.90;;;27.00;;
2053;SDS011;1032;52.542;13.440;2022-10-31T10:48:01;36.83;;;28.87;;
2053;SDS011;1032;52.542;13.440;2022-10-31T10:50:34;38.87;;;29.73;;
2053;SDS011;1032;52.542;13.440;2022-10-31T10:53:15;32.67;;;27.40;;
2053;SDS011;1032;52.542;13.440;2022-10-31T10:55:59;31.40;;;26.50;;
2053;SDS011;1032;52.542;13.440;2022-10-31T10:58:35;42.63;;;28.90;;
2053;SDS011;1032;52.542;13.440;2022-10-31T11:01:08;39.63;;;29.10;;
2053;SDS011;1032;52.542;13.440;2022-10-31T11:03:36;38.57;;;30.10;;
2053;SDS011;1032;52.542;13.440;2022-10-31T11:06:03;43.10;;;30.30;;
2053;SDS011;1032;52.542;13.440;2022-10-31T11:08:32;35.90;;;29.57;;
2053;SDS011;1032;52.542;13.440;2022-10-31T11:11:02;39.50;;;29.83;;
2053;SDS011;1032;52.542;13.440;2022-10-31T11:13:32;40.93;;;31.83;;
2053;SDS011;1032;52.542;13.440;2022-10-31T11:16:01;49.63;;;32.77;;
2053;SDS011;1032;52.542;13.440;2022-10-31T11:18:31;39.97;;;30.50;;
2053;SDS011;1032;52.542;13.440;2022-10-31T11:21:01;50.63;;;32.10;;
2053;SDS011;1032;52.542;13.440;2022-10-31T11:23:29;39.57;;;31.93;;
2053;SDS011;1032;52.542;13.440;2022-10-31T11:25:57;43.17;;;33.23;;
2053;SDS011;1032;52.542;13.440;2022-10-31T11:28:28;43.97;;;32.30;;
2053;SDS011;1032;52.542;13.440;2022-10-31T11:30:56;39.07;;;28.50;;
2053;SDS011;1032;52.542;13.440;2022-10-31T11:33:26;37.53;;;29.10;;
2053;SDS011;1032;52.542;13.440;2022-10-31T11:35:57;29.50;;;24.40;;
2053;SDS011;1032;52.542;13.440;2022-10-31T11:38:26;45.53;;;31.80;;
2053;SDS011;1032;52.542;13.440;2022-10-31T11:41:02;38.40;;;30.60;;
2053;SDS011;1032;52.542;13.440;2022-10-31T11:43:37;36.20;;;29.17;;
2053;SDS011;1032;52.542;13.440;2022-10-31T11:46:09;39.87;;;28.83;;
2053;SDS011;1032;52.542;13.440;2022-10-31T11:48:37;36.43;;;29.07;;
2053;SDS011;1032;52.542;13.440;2022-10-31T11:51:04;41.13;;;30.27;;
2053;SDS011;1032;52.542;13.440;2022-10-31T11:53:32;44.77;;;29.30;;
2053;SDS011;1032;52.542;13.440;2022-10-31T11:56:04;38.03;;;29.80;;
2053;SDS011;1032;52.542;13.440;2022-10-31T11:58:37;46.93;;;29.67;;
2053;SDS011;1032;52.542;13.440;2022-10-31T12:01:04;37.97;;;30.37;;
2053;SDS011;1032;52.542;13.440;2022-10-31T12:03:37;40.17;;;28.80;;
2053;SDS011;1032;52.542;13.440;2022-10-31T12:06:15;39.43;;;30.53;;
2053;SDS011;1032;52.542;13.440;2022-10-31T12:08:46;49.77;;;31.53;;
2053;SDS011;1032;52.542;13.440;2022-10-31T12:11:18;40.13;;;28.03;;
2053;SDS011;1032;52.542;13.440;2022-10-31T12:14:02;41.53;;;29.90;;
2053;SDS011;1032;52.542;13.440;2022-10-31T12:16:39;35.07;;;29.23;;
2053;SDS011;1032;52.542;13.440;2022-10-31T12:19:13;41.10;;;30.87;;
2053;SDS011;1032;52.542;13.440;2022-10-31T12:21:53;36.73;;;28.97;;
2053;SDS011;1032;52.542;13.440;2022-10-31T12:24:38;53.83;;;35.63;;
2053;SDS011;1032;52.542;13.440;2022-10-31T12:27:20;47.40;;;31.07;;
2053;SDS011;1032;52.542;13.440;2022-10-31T12:30:01;41.50;;;30.33;;
2053;SDS011;1032;52.542;13.440;2022-10-31T12:32:38;41.17;;;30.90;;
2053;SDS011;1032;52.542;13.440;2022-10-31T12:35:19;43.13;;;28.80;;
2053;SDS011;1032;52.542;13.440;2022-10-31T12:37:57;39.80;;;30.97;;
2053;SDS011;1032;52.542;13.440;2022-10-31T12:40:36;41.53;;;29.40;;
2053;SDS011;1032;52.542;13.440;2022-10-31T12:43:16;37.03;;;30.20;;
2053;SDS011;1032;52.542;13.440;2022-10-31T12:45:54;43.03;;;30.00;;
2053;SDS011;1032;52.542;13.440;2022-10-31T12:51:24;35.00;;;26.60;;
2053;SDS011;1032;52.542;13.440;2022-10-31T12:54:05;39.60;;;29.93;;
2053;SDS011;1032;52.542;13.440;2022-10-31T12:56:56;43.97;;;32.53;;
2053;SDS011;1032;52.542;13.440;2022-10-31T12:59:30;34.87;;;28.30;;
2053;SDS011;1032;52.542;13.440;2022-10-31T13:02:04;38.33;;;27.97;;
2053;SDS011;1032;52.542;13.440;2022-10-31T13:04:40;39.90;;;27.57;;
2053;SDS011;1032;52.542;13.440;2022-10-31T13:07:12;32.10;;;25.93;;
2053;SDS011;1032;52.542;13.440;2022-10-31T13:09:43;39.83;;;27.90;;
2053;SDS011;1032;52.542;13.440;2022-10-31T13:12:16;40.77;;;29.50;;
2053;SDS011;1032;52.542;13.440;2022-10-31T13:14:46;36.20;;;28.73;;
2053;SDS011;1032;52.542;13.440;2022-10-31T13:17:20;41.27;;;30.00;;
2053;SDS011;1032;52.542;13.440;2022-10-31T13:19:52;36.33;;;27.70;;
2053;SDS011;1032;52.542;13.440;2022-10-31T13:22:25;37.17;;;29.03;;
2053;SDS011;1032;52.542;13.440;2022-10-31T13:24:57;40.40;;;29.77;;
2053;SDS011;1032;52.542;13.440;2022-10-31T13:27:28;39.53;;;28.97;;
2053;SDS011;1032;52.542;13.440;2022-10-31T13:30:01;39.13;;;30.50;;
2053;SDS011;1032;52.542;13.440;2022-10-31T13:32:37;38.03;;;29.47;;
2053;SDS011;1032;52.542;13.440;2022-10-31T13:35:09;44.03;;;29.87;;
2053;SDS011;1032;52.542;13.440;2022-10-31T13:37:41;36.27;;;26.40;;
2053;SDS011;1032;52.542;13.440;2022-10-31T13:40:14;36.47;;;28.00;;
2053;SDS011;1032;52.542;13.440;2022-10-31T13:42:51;38.70;;;28.70;;
2053;SDS011;1032;52.542;13.440;2022-10-31T13:45:22;42.83;;;30.80;;
2053;SDS011;1032;52.542;13.440;2022-10-31T13:47:58;39.90;;;28.03;;
2053;SDS011;1032;52.542;13.440;2022-10-31T13:50:26;46.83;;;30.07;;
2053;SDS011;1032;52.542;13.440;2022-10-31T13:53:03;38.03;;;30.17;;
2053;SDS011;1032;52.542;13.440;2022-10-31T13:55:38;40.23;;;28.30;;
2053;SDS011;1032;52.542;13.440;2022-10-31T13:58:19;34.83;;;29.13;;
2053;SDS011;1032;52.542;13.440;2022-10-31T14:00:57;36.93;;;29.00;;
2053;SDS011;1032;52.542;13.440;2022-10-31T14:03:29;41.60;;;30.70;;
2053;SDS011;1032;52.542;13.440;2022-10-31T14:05:58;36.03;;;27.47;;
2053;SDS011;1032;52.542;13.440;2022-10-31T14:08:25;36.43;;;30.60;;
2053;SDS011;1032;52.542;13.440;2022-10-31T14:10:53;37.70;;;29.10;;
2053;SDS011;1032;52.542;13.440;2022-10-31T14:13:21;33.50;;;25.80;;
2053;SDS011;1032;52.542;13.440;2022-10-31T14:15:54;30.47;;;26.53;;
2053;SDS011;1032;52.542;13.440;2022-10-31T14:18:25;35.90;;;28.30;;
2053;SDS011;1032;52.542;13.440;2022-10-31T14:20:58;34.50;;;28.80;;
2053;SDS011;1032;52.542;13.440;2022-10-31T14:23:35;34.40;;;27.63;;
2053;SDS011;1032;52.542;13.440;2022-10-31T14:26:18;37.73;;;29.10;;
2053;SDS011;1032;52.542;13.440;2022-10-31T14:28:56;38.33;;;28.03;;
2053;SDS011;1032;52.542;13.440;2022-10-31T14:31:28;39.77;;;30.30;;
2053;SDS011;1032;52.542;13.440;2022-10-31T14:34:00;43.40;;;32.20;;
2053;SDS011;1032;52.542;13.440;2022-10-31T14:36:31;38.80;;;31.03;;
2053;SDS011;1032;52.542;13.440;2022-10-31T14:39:08;48.83;;;34.33;;
2053;SDS011;1032;52.542;13.440;2022-10-31T14:41:45;55.03;;;38.13;;
2053;SDS011;1032;52.542;13.440;2022-10-31T14:47:16;42.70;;;36.73;;
2053;SDS011;1032;52.542;13.440;2022-10-31T14:50:06;51.80;;;39.30;;
2053;SDS011;1032;52.542;13.440;2022-10-31T14:52:46;56.37;;;38.50;;
2053;SDS011;1032;52.542;13.440;2022-10-31T14:55:17;56.23;;;38.00;;
2053;SDS011;1032;52.542;13.440;2022-10-31T14:57:46;48.70;;;37.70;;
2053;SDS011;1032;52.542;13.440;2022-10-31T15:00:16;53.00;;;39.57;;
2053;SDS011;1032;52.542;13.440;2022-10-31T15:02:46;52.90;;;38.70;;
2053;SDS011;1032;52.542;13.440;2022-10-31T15:05:24;48.90;;;37.17;;
2053;SDS011;1032;52.542;13.440;2022-10-31T15:07:52;51.53;;;39.90;;
2053;SDS011;1032;52.542;13.440;2022-10-31T15:10:21;47.70;;;38.60;;
2053;SDS011;1032;52.542;13.440;2022-10-31T15:12:50;54.17;;;37.83;;
2053;SDS011;1032;52.542;13.440;2022-10-31T15:15:18;52.63;;;39.57;;
2053;SDS011;1032;52.542;13.440;2022-10-31T15:17:47;57.50;;;40.33;;
2053;SDS011;1032;52.542;13.440;2022-10-31T15:20:17;57.23;;;41.93;;